Time,TemperatureF,DewpointF,PressureIn,WindDirection,WindDirectionDegrees,WindSpeedMPH,WindSpeedGustMPH,Humidity,HourlyPrecipIn,Conditions,Clouds,dailyrainin,SoftwareType,DateUTC
2013-01-11 00:00:00,16.7,15.5,30.06,NNE,30,0.0,1.0,95,0.00,,,0.00,WeatherCatV1.02B3,2013-01-11 08:00:00,
2013-01-11 00:10:00,16.7,15.0,30.06,NNE,22,1.0,2.0,93,0.00,,,0.00,WeatherCatV1.02B3,2013-01-11 08:10:00,
2013-01-11 00:20:00,16.5,14.8,30.06,NNE,22,0.0,0.0,93,0.00,,,0.00,WeatherCatV1.02B3,2013-01-11 08:20:00,
2013-01-11 00:25:00,16.6,15.2,30.06,NNE,22,0.0,0.0,94,0.00,,,0.00,WeatherCatV1.02B3,2013-01-11 08:25:00,
2013-01-11 00:30:00,16.9,15.5,30.06,NNE,22,2.0,3.0,94,0.00,,,0.00,WeatherCatV1.02B3,2013-01-11 08:30:00,
2013-01-11 00:35:00,16.7,15.0,30.06,SW,229,0.0,2.0,93,0.00,,,0.00,WeatherCatV1.02B3,2013-01-11 08:35:00,
2013-01-11 00:40:00,16.4,14.7,30.07,SW,229,1.0,1.0,93,0.00,,,0.00,WeatherCatV1.02B3,2013-01-11 08:40:00,
2013-01-11 00:45:00,16.3,14.6,30.07,SW,229,1.0,2.0,93,0.00,,,0.00,WeatherCatV1.02B3,2013-01-11 08:45:00,
2013-01-11 00:50:00,16.2,14.5,30.06,SW,229,0.0,0.0,93,0.00,,,0.00,WeatherCatV1.02B3,2013-01-11 08:50:00,
2013-01-11 00:55:00,16.2,14.5,30.06,SW,229,1.0,1.0,93,0.00,,,0.00,WeatherCatV1.02B3,2013-01-11 08:55:00,
2013-01-11 01:00:00,16.2,14.5,30.06,SW,229,0.0,0.0,93,0.00,,,0.00,WeatherCatV1.02B3,2013-01-11 09:00:00,
2013-01-11 01:05:00,16.3,14.9,30.06,SW,229,0.0,1.0,94,0.00,,,0.00,WeatherCatV1.02B3,2013-01-11 09:05:00,
2013-01-11 01:10:00,16.2,14.5,30.06,SW,229,1.0,1.0,93,0.00,,,0.00,WeatherCatV1.02B3,2013-01-11 09:10:00,
2013-01-11 01:15:00,15.8,14.1,30.06,SW,229,0.0,0.0,93,0.00,,,0.00,WeatherCatV1.02B3,2013-01-11 09:15:00,
2013-01-11 01:20:00,15.7,14.0,30.07,SW,229,0.0,2.0,93,0.00,,,0.00,WeatherCatV1.02B3,2013-01-11 09:20:00,
2013-01-11 01:25:00,15.5,13.8,30.07,SW,229,0.0,0.0,93,0.00,,,0.00,WeatherCatV1.02B3,2013-01-11 09:25:00,
2013-01-11 01:30:00,15.4,13.5,30.07,SW,229,2.0,3.0,92,0.00,,,0.00,WeatherCatV1.02B3,2013-01-11 09:30:00,
2013-01-11 01:35:00,14.2,11.8,30.07,WNW,296,1.0,2.0,90,0.00,,,0.00,WeatherCatV1.02B3,2013-01-11 09:35:00,
2013-01-11 01:40:00,13.6,11.5,30.07,NW,314,2.0,2.0,91,0.00,,,0.00,WeatherCatV1.02B3,2013-01-11 09:40:00,
2013-01-11 01:45:00,13.4,11.5,30.07,NW,314,2.0,3.0,92,0.00,,,0.00,WeatherCatV1.02B3,2013-01-11 09:45:00,
2013-01-11 01:50:00,13.6,12.0,30.08,NW,319,1.0,2.0,93,0.00,,,0.00,WeatherCatV1.02B3,2013-01-11 09:50:00,
2013-01-11 01:55:00,14.0,12.4,30.08,NNW,330,1.0,3.0,93,0.00,,,0.00,WeatherCatV1.02B3,2013-01-11 09:55:00,
2013-01-11 02:00:00,14.3,12.7,30.08,NNW,331,0.0,1.0,93,0.00,,,0.00,WeatherCatV1.02B3,2013-01-11 10:00:00,
2013-01-11 02:05:00,14.7,13.3,30.08,NNW,327,2.0,2.0,94,0.00,,,0.00,WeatherCatV1.02B3,2013-01-11 10:05:00,
2013-01-11 02:10:00,15.3,14.1,30.08,NNW,327,1.0,1.0,95,0.00,,,0.00,WeatherCatV1.02B3,2013-01-11 10:10:00,
2013-01-11 02:15:00,15.6,14.2,30.09,NNW,327,0.0,0.0,94,0.00,,,0.00,WeatherCatV1.02B3,2013-01-11 10:15:00,
2013-01-11 02:20:00,15.6,13.9,30.09,NNW,327,0.0,0.0,93,0.00,,,0.00,WeatherCatV1.02B3,2013-01-11 10:20:00,
2013-01-11 02:30:00,15.0,13.3,30.09,NNW,327,0.0,0.0,93,0.00,,,0.00,WeatherCatV1.02B3,2013-01-11 10:30:00,
2013-01-11 02:40:00,15.0,13.3,30.09,NNW,327,0.0,0.0,93,0.00,,,0.00,WeatherCatV1.02B3,2013-01-11 10:40:00,
2013-01-11 02:50:00,14.9,13.0,30.09,NNW,327,0.0,0.0,92,0.00,,,0.00,WeatherCatV1.02B3,2013-01-11 10:50:00,
2013-01-11 03:00:00,14.0,12.1,30.10,NNW,327,0.0,0.0,92,0.00,,,0.00,WeatherCatV1.02B3,2013-01-11 11:00:00,
2013-01-11 03:10:00,13.2,11.1,30.10,NNW,327,1.0,2.0,91,0.00,,,0.00,WeatherCatV1.02B3,2013-01-11 11:10:00,
2013-01-11 03:15:00,13.3,11.7,30.10,NNW,327,0.0,0.0,93,0.00,,,0.00,WeatherCatV1.02B3,2013-01-11 11:15:00,
2013-01-11 03:20:00,12.9,10.8,30.10,NNW,327,1.0,1.0,91,0.00,,,0.00,WeatherCatV1.02B3,2013-01-11 11:20:00,
2013-01-11 03:25:00,13.0,11.4,30.10,NNW,327,1.0,2.0,93,0.00,,,0.00,WeatherCatV1.02B3,2013-01-11 11:25:00,
2013-01-11 03:30:00,13.2,11.6,30.10,NNW,327,1.0,1.0,93,0.00,,,0.00,WeatherCatV1.02B3,2013-01-11 11:30:00,
2013-01-11 03:35:00,12.8,10.7,30.10,NNW,327,3.0,3.0,91,0.00,,,0.00,WeatherCatV1.02B3,2013-01-11 11:35:00,
2013-01-11 03:40:00,12.2,9.8,30.10,NNW,327,1.0,1.0,90,0.00,,,0.00,WeatherCatV1.02B3,2013-01-11 11:40:00,
2013-01-11 03:45:00,11.9,9.8,30.10,NNW,327,0.0,0.0,91,0.00,,,0.00,WeatherCatV1.02B3,2013-01-11 11:45:00,
2013-01-11 03:50:00,11.9,10.0,30.10,NNW,327,0.0,0.0,92,0.00,,,0.00,WeatherCatV1.02B3,2013-01-11 11:50:00,
2013-01-11 03:55:00,12.1,10.2,30.10,NNW,327,0.0,0.0,92,0.00,,,0.00,WeatherCatV1.02B3,2013-01-11 11:55:00,
2013-01-11 04:00:00,12.3,10.7,30.10,NNW,327,1.0,1.0,93,0.00,,,0.00,WeatherCatV1.02B3,2013-01-11 12:00:00,
2013-01-11 04:10:00,13.3,11.9,30.10,NNW,327,0.0,0.0,94,0.00,,,0.00,WeatherCatV1.02B3,2013-01-11 12:10:00,
2013-01-11 04:15:00,13.0,10.9,30.11,NNW,327,1.0,2.0,91,0.00,,,0.00,WeatherCatV1.02B3,2013-01-11 12:15:00,
2013-01-11 04:25:00,12.6,11.0,30.11,NNW,327,0.0,0.0,93,0.00,,,0.00,WeatherCatV1.02B3,2013-01-11 12:25:00,
2013-01-11 04:30:00,12.3,10.4,30.11,NNW,327,0.0,2.0,92,0.00,,,0.00,WeatherCatV1.02B3,2013-01-11 12:30:00,
2013-01-11 04:35:00,12.2,10.3,30.11,NNW,327,0.0,0.0,92,0.00,,,0.00,WeatherCatV1.02B3,2013-01-11 12:35:00,
2013-01-11 04:40:00,12.2,10.3,30.12,NNW,327,1.0,1.0,92,0.00,,,0.00,WeatherCatV1.02B3,2013-01-11 12:40:00,
2013-01-11 04:45:00,11.7,9.6,30.12,NE,38,2.0,3.0,91,0.00,,,0.00,WeatherCatV1.02B3,2013-01-11 12:45:00,
2013-01-11 04:50:00,11.9,10.3,30.12,NE,40,2.0,2.0,93,0.00,,,0.00,WeatherCatV1.02B3,2013-01-11 12:50:00,
2013-01-11 04:55:00,12.4,10.8,30.13,NNE,28,2.0,2.0,93,0.00,,,0.00,WeatherCatV1.02B3,2013-01-11 12:55:00,
2013-01-11 05:00:00,12.7,11.1,30.13,WNW,291,0.0,2.0,93,0.00,,,0.00,WeatherCatV1.02B3,2013-01-11 13:00:00,
2013-01-11 05:05:00,12.7,10.8,30.13,WNW,291,0.0,0.0,92,0.00,,,0.00,WeatherCatV1.02B3,2013-01-11 13:05:00,
2013-01-11 05:10:00,12.7,10.8,30.13,WNW,291,0.0,0.0,92,0.00,,,0.00,WeatherCatV1.02B3,2013-01-11 13:10:00,
2013-01-11 05:15:00,12.6,10.7,30.13,WNW,291,0.0,0.0,92,0.00,,,0.00,WeatherCatV1.02B3,2013-01-11 13:15:00,
2013-01-11 05:25:00,12.4,10.5,30.14,WNW,291,1.0,1.0,92,0.00,,,0.00,WeatherCatV1.02B3,2013-01-11 13:25:00,
2013-01-11 05:30:00,12.8,11.2,30.14,WNW,291,0.0,1.0,93,0.00,,,0.00,WeatherCatV1.02B3,2013-01-11 13:30:00,
2013-01-11 05:35:00,13.2,11.6,30.15,WNW,291,0.0,0.0,93,0.00,,,0.00,WeatherCatV1.02B3,2013-01-11 13:35:00,
2013-01-11 05:45:00,14.0,12.4,30.15,WNW,291,0.0,0.0,93,0.00,,,0.00,WeatherCatV1.02B3,2013-01-11 13:45:00,
2013-01-11 05:50:00,14.3,12.7,30.15,WNW,291,0.0,0.0,93,0.00,,,0.00,WeatherCatV1.02B3,2013-01-11 13:50:00,
2013-01-11 05:55:00,14.5,12.9,30.15,WNW,291,0.0,0.0,93,0.00,,,0.00,WeatherCatV1.02B3,2013-01-11 13:55:00,
2013-01-11 06:00:00,14.6,13.0,30.15,WNW,291,0.0,0.0,93,0.00,,,0.00,WeatherCatV1.02B3,2013-01-11 14:00:00,
2013-01-11 06:05:00,14.8,13.2,30.16,WNW,291,0.0,2.0,93,0.00,,,0.00,WeatherCatV1.02B3,2013-01-11 14:05:00,
2013-01-11 06:15:00,15.4,13.7,30.16,WSW,238,1.0,1.0,93,0.00,,,0.00,WeatherCatV1.02B3,2013-01-11 14:15:00,
2013-01-11 06:25:00,15.5,13.8,30.17,WSW,238,0.0,0.0,93,0.00,,,0.00,WeatherCatV1.02B3,2013-01-11 14:25:00,
2013-01-11 06:35:00,15.9,14.2,30.17,WSW,238,2.0,2.0,93,0.00,,,0.00,WeatherCatV1.02B3,2013-01-11 14:35:00,
2013-01-11 06:40:00,16.0,14.3,30.18,WNW,293,3.0,3.0,93,0.00,,,0.00,WeatherCatV1.02B3,2013-01-11 14:40:00,
2013-01-11 06:45:00,16.0,14.3,30.18,NW,313,2.0,3.0,93,0.00,,,0.00,WeatherCatV1.02B3,2013-01-11 14:45:00,
2013-01-11 06:50:00,16.2,14.5,30.18,NW,313,0.0,0.0,93,0.00,,,0.00,WeatherCatV1.02B3,2013-01-11 14:50:00,
2013-01-11 06:55:00,16.4,14.7,30.18,NW,313,0.0,2.0,93,0.00,,,0.00,WeatherCatV1.02B3,2013-01-11 14:55:00,
2013-01-11 07:05:00,16.6,14.9,30.19,NW,313,0.0,0.0,93,0.00,,,0.00,WeatherCatV1.02B3,2013-01-11 15:05:00,
2013-01-11 07:10:00,16.6,14.9,30.19,NW,313,0.0,0.0,93,0.00,,,0.00,WeatherCatV1.02B3,2013-01-11 15:10:00,
2013-01-11 07:15:00,16.7,15.0,30.19,NW,313,0.0,1.0,93,0.00,,,0.00,WeatherCatV1.02B3,2013-01-11 15:15:00,
2013-01-11 07:25:00,16.8,15.1,30.20,NW,313,0.0,0.0,93,0.00,,,0.00,WeatherCatV1.02B3,2013-01-11 15:25:00,
2013-01-11 07:30:00,16.8,15.1,30.20,NW,313,1.0,1.0,93,0.00,,,0.00,WeatherCatV1.02B3,2013-01-11 15:30:00,
2013-01-11 07:35:00,16.7,15.0,30.21,NW,313,0.0,0.0,93,0.00,,,0.00,WeatherCatV1.02B3,2013-01-11 15:35:00,
2013-01-11 07:40:00,16.6,14.7,30.21,NW,313,1.0,2.0,92,0.00,,,0.00,WeatherCatV1.02B3,2013-01-11 15:40:00,
2013-01-11 07:45:00,16.6,14.9,30.21,NW,313,0.0,1.0,93,0.00,,,0.00,WeatherCatV1.02B3,2013-01-11 15:45:00,
2013-01-11 07:50:00,16.6,14.9,30.21,NW,313,0.0,0.0,93,0.00,,,0.00,WeatherCatV1.02B3,2013-01-11 15:50:00,
2013-01-11 07:55:00,16.5,14.6,30.22,NW,313,0.0,0.0,92,0.00,,,0.00,WeatherCatV1.02B3,2013-01-11 15:55:00,
2013-01-11 08:00:00,16.4,14.7,30.22,NW,313,0.0,0.0,93,0.00,,,0.00,WeatherCatV1.02B3,2013-01-11 16:00:00,
2013-01-11 08:05:00,16.1,14.2,30.22,NW,310,0.0,1.0,92,0.00,,,0.00,WeatherCatV1.02B3,2013-01-11 16:05:00,
2013-01-11 08:10:00,15.9,14.0,30.23,NW,310,1.0,2.0,92,0.00,,,0.00,WeatherCatV1.02B3,2013-01-11 16:10:00,
2013-01-11 08:15:00,15.7,13.8,30.23,NW,310,0.0,1.0,92,0.00,,,0.00,WeatherCatV1.02B3,2013-01-11 16:15:00,
2013-01-11 08:20:00,15.2,13.1,30.23,NW,310,0.0,1.0,91,0.00,,,0.00,WeatherCatV1.02B3,2013-01-11 16:20:00,
2013-01-11 08:25:00,15.1,13.2,30.24,NW,310,0.0,0.0,92,0.00,,,0.00,WeatherCatV1.02B3,2013-01-11 16:25:00,
2013-01-11 08:30:00,14.8,12.7,30.24,NW,310,0.0,0.0,91,0.00,,,0.00,WeatherCatV1.02B3,2013-01-11 16:30:00,
2013-01-11 08:35:00,14.8,13.2,30.24,NW,310,0.0,0.0,93,0.00,,,0.00,WeatherCatV1.02B3,2013-01-11 16:35:00,
2013-01-11 08:45:00,14.9,13.0,30.25,NW,310,0.0,0.0,92,0.00,,,0.00,WeatherCatV1.02B3,2013-01-11 16:45:00,
2013-01-11 08:50:00,15.0,13.3,30.25,NW,310,1.0,1.0,93,0.00,,,0.00,WeatherCatV1.02B3,2013-01-11 16:50:00,
2013-01-11 08:55:00,15.2,13.5,30.25,NW,310,0.0,0.0,93,0.00,,,0.00,WeatherCatV1.02B3,2013-01-11 16:55:00,
2013-01-11 09:00:00,15.3,13.6,30.25,NW,310,1.0,1.0,93,0.00,,,0.00,WeatherCatV1.02B3,2013-01-11 17:00:00,
2013-01-11 09:05:00,15.6,13.9,30.26,NW,310,0.0,1.0,93,0.00,,,0.00,WeatherCatV1.02B3,2013-01-11 17:05:00,
2013-01-11 09:10:00,15.9,14.5,30.26,NW,310,0.0,1.0,94,0.00,,,0.00,WeatherCatV1.02B3,2013-01-11 17:10:00,
2013-01-11 09:15:00,16.3,14.9,30.26,NW,310,0.0,0.0,94,0.00,,,0.00,WeatherCatV1.02B3,2013-01-11 17:15:00,
2013-01-11 09:20:00,16.8,15.6,30.26,NW,310,0.0,0.0,95,0.00,,,0.00,WeatherCatV1.02B3,2013-01-11 17:20:00,
2013-01-11 09:25:00,17.1,15.7,30.26,NW,310,0.0,0.0,94,0.00,,,0.00,WeatherCatV1.02B3,2013-01-11 17:25:00,
2013-01-11 09:30:00,17.6,16.2,30.26,NW,310,1.0,1.0,94,0.00,,,0.00,WeatherCatV1.02B3,2013-01-11 17:30:00,
2013-01-11 09:35:00,18.1,16.9,30.26,NW,310,0.0,0.0,95,0.00,,,0.00,WeatherCatV1.02B3,2013-01-11 17:35:00,
2013-01-11 09:45:00,19.3,18.1,30.27,NW,310,0.0,0.0,95,0.00,,,0.00,WeatherCatV1.02B3,2013-01-11 17:45:00,
2013-01-11 09:50:00,20.0,18.8,30.27,NW,310,0.0,0.0,95,0.00,,,0.00,WeatherCatV1.02B3,2013-01-11 17:50:00,
2013-01-11 09:55:00,20.7,19.5,30.27,NW,310,0.0,0.0,95,0.00,,,0.00,WeatherCatV1.02B3,2013-01-11 17:55:00,
2013-01-11 10:00:00,21.3,20.1,30.27,NW,310,0.0,0.0,95,0.00,,,0.00,WeatherCatV1.02B3,2013-01-11 18:00:00,
2013-01-11 10:05:00,21.8,20.6,30.27,NW,310,0.0,0.0,95,0.00,,,0.00,WeatherCatV1.02B3,2013-01-11 18:05:00,
2013-01-11 10:10:00,22.6,21.4,30.27,NW,310,0.0,0.0,95,0.00,,,0.00,WeatherCatV1.02B3,2013-01-11 18:10:00,
2013-01-11 10:15:00,22.7,21.0,30.28,NW,310,1.0,1.0,93,0.00,,,0.00,WeatherCatV1.02B3,2013-01-11 18:15:00,
2013-01-11 10:25:00,22.4,20.4,30.28,NW,310,0.0,1.0,92,0.00,,,0.00,WeatherCatV1.02B3,2013-01-11 18:25:00,
2013-01-11 10:30:00,22.7,21.0,30.28,NW,310,0.0,0.0,93,0.00,,,0.00,WeatherCatV1.02B3,2013-01-11 18:30:00,
2013-01-11 10:40:00,24.0,22.3,30.28,NW,310,0.0,0.0,93,0.00,,,0.00,WeatherCatV1.02B3,2013-01-11 18:40:00,
2013-01-11 10:45:00,24.5,22.0,30.28,NW,310,0.0,0.0,90,0.00,,,0.00,WeatherCatV1.02B3,2013-01-11 18:45:00,
2013-01-11 10:50:00,24.8,22.0,30.28,NW,310,0.0,1.0,89,0.00,,,0.00,WeatherCatV1.02B3,2013-01-11 18:50:00,
2013-01-11 10:55:00,25.3,22.3,30.28,NW,310,1.0,1.0,88,0.00,,,0.01,WeatherCatV1.02B3,2013-01-11 18:55:00,
2013-01-11 11:00:00,25.6,22.3,30.28,NW,310,0.0,1.0,87,0.00,,,0.01,WeatherCatV1.02B3,2013-01-11 19:00:00,
2013-01-11 11:05:00,25.8,21.9,30.27,NW,310,1.0,2.0,85,0.00,,,0.01,WeatherCatV1.02B3,2013-01-11 19:05:00,
2013-01-11 11:10:00,25.3,21.2,30.27,NW,310,2.0,3.0,84,0.00,,,0.01,WeatherCatV1.02B3,2013-01-11 19:10:00,
2013-01-11 11:15:00,25.1,21.0,30.27,NW,310,2.0,2.0,84,0.00,,,0.01,WeatherCatV1.02B3,2013-01-11 19:15:00,
2013-01-11 11:20:00,25.1,21.0,30.27,NW,310,1.0,2.0,84,0.00,,,0.01,WeatherCatV1.02B3,2013-01-11 19:20:00,
2013-01-11 11:25:00,25.4,21.3,30.27,NW,310,0.0,1.0,84,0.00,,,0.01,WeatherCatV1.02B3,2013-01-11 19:25:00,
2013-01-11 11:30:00,26.1,22.8,30.27,NW,310,1.0,1.0,87,0.00,,,0.01,WeatherCatV1.02B3,2013-01-11 19:30:00,
2013-01-11 11:35:00,26.7,21.1,30.27,NW,310,0.0,1.0,79,0.00,,,0.01,WeatherCatV1.02B3,2013-01-11 19:35:00,
2013-01-11 11:40:00,27.3,21.4,30.27,NW,310,1.0,1.0,78,0.00,,,0.01,WeatherCatV1.02B3,2013-01-11 19:40:00,
2013-01-11 11:45:00,28.2,22.2,30.27,NW,310,2.0,3.0,78,0.00,,,0.01,WeatherCatV1.02B3,2013-01-11 19:45:00,
2013-01-11 11:50:00,28.4,21.8,30.27,NW,310,1.0,2.0,76,0.00,,,0.01,WeatherCatV1.02B3,2013-01-11 19:50:00,
2013-01-11 11:55:00,28.5,21.9,30.27,NW,310,1.0,2.0,76,0.00,,,0.01,WeatherCatV1.02B3,2013-01-11 19:55:00,
2013-01-11 12:00:00,28.4,20.9,30.27,NW,310,0.0,2.0,73,0.00,,,0.01,WeatherCatV1.02B3,2013-01-11 20:00:00,
2013-01-11 12:05:00,28.5,20.6,30.27,NW,310,1.0,2.0,72,0.00,,,0.01,WeatherCatV1.02B3,2013-01-11 20:05:00,
2013-01-11 12:10:00,28.9,21.4,30.26,NW,310,0.0,2.0,73,0.00,,,0.01,WeatherCatV1.02B3,2013-01-11 20:10:00,
2013-01-11 12:15:00,29.1,20.9,30.26,NW,310,2.0,2.0,71,0.00,,,0.01,WeatherCatV1.02B3,2013-01-11 20:15:00,
2013-01-11 12:20:00,29.2,20.7,30.26,NW,310,2.0,2.0,70,0.00,,,0.01,WeatherCatV1.02B3,2013-01-11 20:20:00,
2013-01-11 12:25:00,29.7,21.8,30.26,NW,310,0.0,0.0,72,0.00,,,0.01,WeatherCatV1.02B3,2013-01-11 20:25:00,
2013-01-11 12:30:00,30.5,22.2,30.26,NW,310,0.0,0.0,71,0.00,,,0.01,WeatherCatV1.02B3,2013-01-11 20:30:00,
2013-01-11 12:35:00,31.0,21.7,30.26,NW,310,0.0,0.0,68,0.00,,,0.01,WeatherCatV1.02B3,2013-01-11 20:35:00,
2013-01-11 12:40:00,31.5,22.2,30.26,SSW,203,2.0,3.0,68,0.00,,,0.01,WeatherCatV1.02B3,2013-01-11 20:40:00,
2013-01-11 12:45:00,31.5,22.9,30.25,SSW,192,3.0,4.0,70,0.00,,,0.01,WeatherCatV1.02B3,2013-01-11 20:45:00,
2013-01-11 12:50:00,31.1,21.8,30.25,South,177,3.0,4.0,68,0.00,,,0.01,WeatherCatV1.02B3,2013-01-11 20:50:00,
2013-01-11 12:55:00,31.1,22.5,30.25,South,177,1.0,3.0,70,0.00,,,0.01,WeatherCatV1.02B3,2013-01-11 20:55:00,
2013-01-11 13:00:00,31.5,21.8,30.25,South,177,2.0,3.0,67,0.00,,,0.01,WeatherCatV1.02B3,2013-01-11 21:00:00,
2013-01-11 13:05:00,32.1,22.0,30.25,South,177,2.0,3.0,66,0.00,,,0.01,WeatherCatV1.02B3,2013-01-11 21:05:00,
2013-01-11 13:10:00,32.5,21.3,30.25,South,177,3.0,3.0,63,0.00,,,0.01,WeatherCatV1.02B3,2013-01-11 21:10:00,
2013-01-11 13:15:00,32.7,21.1,30.25,South,177,3.0,4.0,62,0.00,,,0.01,WeatherCatV1.02B3,2013-01-11 21:15:00,
2013-01-11 13:20:00,32.8,19.7,30.26,SSE,161,3.0,5.0,58,0.00,,,0.01,WeatherCatV1.02B3,2013-01-11 21:20:00,
2013-01-11 13:25:00,32.8,22.0,30.26,South,180,4.0,6.0,64,0.00,,,0.01,WeatherCatV1.02B3,2013-01-11 21:25:00,
2013-01-11 13:30:00,32.7,22.3,30.26,South,170,3.0,5.0,65,0.00,,,0.01,WeatherCatV1.02B3,2013-01-11 21:30:00,
2013-01-11 13:35:00,32.8,22.0,30.27,South,175,4.0,6.0,64,0.00,,,0.01,WeatherCatV1.02B3,2013-01-11 21:35:00,
2013-01-11 13:40:00,32.6,22.2,30.27,South,190,5.0,5.0,65,0.00,,,0.01,WeatherCatV1.02B3,2013-01-11 21:40:00,
2013-01-11 13:45:00,32.6,20.3,30.27,SSE,168,3.0,5.0,60,0.00,,,0.01,WeatherCatV1.02B3,2013-01-11 21:45:00,
2013-01-11 13:50:00,32.8,20.1,30.27,South,183,4.0,5.0,59,0.00,,,0.01,WeatherCatV1.02B3,2013-01-11 21:50:00,
2013-01-11 13:55:00,32.9,21.7,30.27,SSW,194,3.0,4.0,63,0.00,,,0.01,WeatherCatV1.02B3,2013-01-11 21:55:00,
2013-01-11 14:00:00,33.0,20.3,30.27,SSW,202,4.0,5.0,59,0.00,,,0.01,WeatherCatV1.02B3,2013-01-11 22:00:00,
2013-01-11 14:05:00,33.1,20.7,30.28,SSW,198,3.0,5.0,60,0.00,,,0.01,WeatherCatV1.02B3,2013-01-11 22:05:00,
2013-01-11 14:10:00,33.3,20.5,30.28,SSW,198,2.0,4.0,59,0.00,,,0.01,WeatherCatV1.02B3,2013-01-11 22:10:00,
2013-01-11 14:15:00,33.5,20.7,30.28,SSW,198,3.0,4.0,59,0.00,,,0.01,WeatherCatV1.02B3,2013-01-11 22:15:00,
2013-01-11 14:20:00,33.9,20.7,30.28,SSW,198,2.0,3.0,58,0.00,,,0.01,WeatherCatV1.02B3,2013-01-11 22:20:00,
2013-01-11 14:25:00,34.3,20.7,30.28,SSW,198,1.0,2.0,57,0.00,,,0.01,WeatherCatV1.02B3,2013-01-11 22:25:00,
2013-01-11 14:30:00,34.5,19.6,30.28,SSW,198,1.0,2.0,54,0.00,,,0.01,WeatherCatV1.02B3,2013-01-11 22:30:00,
2013-01-11 14:35:00,34.6,21.0,30.28,SSW,198,2.0,2.0,57,0.00,,,0.01,WeatherCatV1.02B3,2013-01-11 22:35:00,
2013-01-11 14:40:00,34.5,20.9,30.28,SSW,198,1.0,1.0,57,0.00,,,0.01,WeatherCatV1.02B3,2013-01-11 22:40:00,
2013-01-11 14:45:00,34.5,20.0,30.28,SSW,198,0.0,2.0,55,0.00,,,0.01,WeatherCatV1.02B3,2013-01-11 22:45:00,
2013-01-11 14:50:00,35.0,19.6,30.28,SSW,198,2.0,2.0,53,0.00,,,0.01,WeatherCatV1.02B3,2013-01-11 22:50:00,
2013-01-11 14:55:00,35.2,18.9,30.28,SSW,198,1.0,2.0,51,0.00,,,0.01,WeatherCatV1.02B3,2013-01-11 22:55:00,
2013-01-11 15:00:00,35.2,18.4,30.28,SSW,198,1.0,2.0,50,0.00,,,0.01,WeatherCatV1.02B3,2013-01-11 23:00:00,
2013-01-11 15:05:00,35.2,19.8,30.28,SSW,198,0.0,1.0,53,0.00,,,0.01,WeatherCatV1.02B3,2013-01-11 23:05:00,
2013-01-11 15:10:00,35.6,19.7,30.28,SSW,198,0.0,1.0,52,0.00,,,0.01,WeatherCatV1.02B3,2013-01-11 23:10:00,
2013-01-11 15:20:00,36.5,20.1,30.29,SSW,198,0.0,0.0,51,0.00,,,0.01,WeatherCatV1.02B3,2013-01-11 23:20:00,
2013-01-11 15:25:00,36.5,19.2,30.29,SSW,198,0.0,0.0,49,0.00,,,0.01,WeatherCatV1.02B3,2013-01-11 23:25:00,
2013-01-11 15:30:00,36.6,18.8,30.29,SSW,198,0.0,0.0,48,0.00,,,0.01,WeatherCatV1.02B3,2013-01-11 23:30:00,
2013-01-11 15:35:00,36.5,18.7,30.29,SSW,198,0.0,0.0,48,0.00,,,0.01,WeatherCatV1.02B3,2013-01-11 23:35:00,
2013-01-11 15:40:00,36.4,19.1,30.29,SSW,198,1.0,2.0,49,0.00,,,0.01,WeatherCatV1.02B3,2013-01-11 23:40:00,
2013-01-11 15:45:00,36.2,19.4,30.29,SSW,198,0.0,0.0,50,0.00,,,0.01,WeatherCatV1.02B3,2013-01-11 23:45:00,
2013-01-11 15:50:00,35.9,19.1,30.30,SSW,198,0.0,0.0,50,0.00,,,0.01,WeatherCatV1.02B3,2013-01-11 23:50:00,
2013-01-11 15:55:00,35.8,18.5,30.30,SSW,198,0.0,0.0,49,0.00,,,0.01,WeatherCatV1.02B3,2013-01-11 23:55:00,
2013-01-11 16:00:00,35.7,19.4,30.30,SSW,198,0.0,0.0,51,0.00,,,0.01,WeatherCatV1.02B3,2013-01-12 00:00:00,
2013-01-11 16:05:00,35.7,19.4,30.30,SSW,198,0.0,0.0,51,0.00,,,0.01,WeatherCatV1.02B3,2013-01-12 00:05:00,
2013-01-11 16:10:00,35.9,19.1,30.30,SSW,198,0.0,0.0,50,0.00,,,0.01,WeatherCatV1.02B3,2013-01-12 00:10:00,
2013-01-11 16:15:00,35.7,19.4,30.30,SSW,198,0.0,0.0,51,0.00,,,0.01,WeatherCatV1.02B3,2013-01-12 00:15:00,
2013-01-11 16:20:00,35.1,18.4,30.30,SSW,198,0.0,0.0,50,0.00,,,0.01,WeatherCatV1.02B3,2013-01-12 00:20:00,
2013-01-11 16:25:00,33.7,18.4,30.30,SSW,198,1.0,2.0,53,0.00,,,0.01,WeatherCatV1.02B3,2013-01-12 00:25:00,
2013-01-11 16:35:00,30.2,17.6,30.30,SSW,198,1.0,2.0,59,0.00,,,0.01,WeatherCatV1.02B3,2013-01-12 00:35:00,
2013-01-11 16:40:00,29.5,17.7,30.30,SSW,198,1.0,3.0,61,0.00,,,0.01,WeatherCatV1.02B3,2013-01-12 00:40:00,
2013-01-11 16:45:00,28.8,18.2,30.30,SSW,198,1.0,2.0,64,0.00,,,0.01,WeatherCatV1.02B3,2013-01-12 00:45:00,
2013-01-11 16:50:00,28.4,18.9,30.30,SSW,198,3.0,4.0,67,0.00,,,0.01,WeatherCatV1.02B3,2013-01-12 00:50:00,
2013-01-11 16:55:00,28.5,19.3,30.30,SSW,198,2.0,4.0,68,0.00,,,0.01,WeatherCatV1.02B3,2013-01-12 00:55:00,
2013-01-11 17:00:00,28.8,19.2,30.30,SSW,198,1.0,1.0,67,0.00,,,0.01,WeatherCatV1.02B3,2013-01-12 01:00:00,
2013-01-11 17:05:00,27.7,18.5,30.30,SSW,198,0.0,0.0,68,0.00,,,0.01,WeatherCatV1.02B3,2013-01-12 01:05:00,
2013-01-11 17:10:00,27.0,18.5,30.30,SSW,198,0.0,1.0,70,0.00,,,0.01,WeatherCatV1.02B3,2013-01-12 01:10:00,
2013-01-11 17:15:00,26.5,18.7,30.31,SSW,198,0.0,0.0,72,0.00,,,0.01,WeatherCatV1.02B3,2013-01-12 01:15:00,
2013-01-11 17:20:00,26.1,18.3,30.31,SSW,198,1.0,1.0,72,0.00,,,0.01,WeatherCatV1.02B3,2013-01-12 01:20:00,
2013-01-11 17:25:00,25.6,18.2,30.31,SSW,198,0.0,0.0,73,0.00,,,0.01,WeatherCatV1.02B3,2013-01-12 01:25:00,
2013-01-11 17:30:00,25.2,18.4,30.31,SSW,198,0.0,0.0,75,0.00,,,0.01,WeatherCatV1.02B3,2013-01-12 01:30:00,
2013-01-11 17:35:00,25.0,18.5,30.31,SSW,198,0.0,0.0,76,0.00,,,0.01,WeatherCatV1.02B3,2013-01-12 01:35:00,
2013-01-11 17:40:00,25.1,18.9,30.31,SSW,198,0.0,1.0,77,0.00,,,0.01,WeatherCatV1.02B3,2013-01-12 01:40:00,
2013-01-11 17:45:00,25.4,19.5,30.31,SSW,198,1.0,1.0,78,0.00,,,0.01,WeatherCatV1.02B3,2013-01-12 01:45:00,
2013-01-11 17:55:00,24.8,17.7,30.32,SSW,198,0.0,0.0,74,0.00,,,0.01,WeatherCatV1.02B3,2013-01-12 01:55:00,
2013-01-11 18:00:00,24.1,17.7,30.32,SSW,198,0.0,0.0,76,0.00,,,0.01,WeatherCatV1.02B3,2013-01-12 02:00:00,
2013-01-11 18:05:00,23.7,17.9,30.32,SSW,198,0.0,0.0,78,0.00,,,0.01,WeatherCatV1.02B3,2013-01-12 02:05:00,
2013-01-11 18:10:00,23.1,17.0,30.32,SSW,198,0.0,0.0,77,0.00,,,0.01,WeatherCatV1.02B3,2013-01-12 02:10:00,
2013-01-11 18:15:00,22.4,16.6,30.32,SSW,198,0.0,0.0,78,0.00,,,0.01,WeatherCatV1.02B3,2013-01-12 02:15:00,
2013-01-11 18:20:00,22.0,16.8,30.32,SSW,198,0.0,0.0,80,0.00,,,0.01,WeatherCatV1.02B3,2013-01-12 02:20:00,
2013-01-11 18:25:00,21.8,17.2,30.32,SSW,198,0.0,0.0,82,0.00,,,0.01,WeatherCatV1.02B3,2013-01-12 02:25:00,
2013-01-11 18:30:00,21.5,16.9,30.32,SSW,198,2.0,3.0,82,0.00,,,0.01,WeatherCatV1.02B3,2013-01-12 02:30:00,
2013-01-11 18:40:00,20.8,16.5,30.33,SSW,198,0.0,2.0,83,0.00,,,0.01,WeatherCatV1.02B3,2013-01-12 02:40:00,
2013-01-11 18:45:00,20.0,14.8,30.32,SSW,198,1.0,1.0,80,0.00,,,0.01,WeatherCatV1.02B3,2013-01-12 02:45:00,
2013-01-11 18:50:00,19.1,14.0,30.33,SSW,198,1.0,2.0,80,0.00,,,0.01,WeatherCatV1.02B3,2013-01-12 02:50:00,
2013-01-11 18:55:00,18.1,13.3,30.33,SSW,198,1.0,2.0,81,0.00,,,0.01,WeatherCatV1.02B3,2013-01-12 02:55:00,
2013-01-11 19:00:00,17.2,12.9,30.33,SSW,198,1.0,2.0,83,0.00,,,0.01,WeatherCatV1.02B3,2013-01-12 03:00:00,
2013-01-11 19:05:00,16.8,12.8,30.33,SSW,198,2.0,2.0,84,0.00,,,0.01,WeatherCatV1.02B3,2013-01-12 03:05:00,
2013-01-11 19:10:00,16.8,13.6,30.33,SSW,198,2.0,3.0,87,0.00,,,0.01,WeatherCatV1.02B3,2013-01-12 03:10:00,
2013-01-11 19:15:00,16.9,13.7,30.33,WSW,257,0.0,2.0,87,0.00,,,0.01,WeatherCatV1.02B3,2013-01-12 03:15:00,
2013-01-11 19:20:00,16.6,13.2,30.33,WSW,257,0.0,2.0,86,0.00,,,0.01,WeatherCatV1.02B3,2013-01-12 03:20:00,
2013-01-11 19:25:00,16.3,12.6,30.33,WSW,257,2.0,2.0,85,0.00,,,0.01,WeatherCatV1.02B3,2013-01-12 03:25:00,
2013-01-11 19:30:00,16.1,12.7,30.33,WSW,257,1.0,1.0,86,0.00,,,0.01,WeatherCatV1.02B3,2013-01-12 03:30:00,
2013-01-11 19:35:00,16.0,12.8,30.33,WSW,257,1.0,2.0,87,0.00,,,0.01,WeatherCatV1.02B3,2013-01-12 03:35:00,
2013-01-11 19:40:00,16.0,13.1,30.33,WSW,257,2.0,3.0,88,0.00,,,0.01,WeatherCatV1.02B3,2013-01-12 03:40:00,
2013-01-11 19:45:00,16.1,12.9,30.33,WSW,257,1.0,1.0,87,0.00,,,0.01,WeatherCatV1.02B3,2013-01-12 03:45:00,
2013-01-11 19:50:00,15.9,12.5,30.33,WSW,257,1.0,2.0,86,0.00,,,0.01,WeatherCatV1.02B3,2013-01-12 03:50:00,
2013-01-11 19:55:00,15.7,12.8,30.33,WSW,257,0.0,1.0,88,0.00,,,0.01,WeatherCatV1.02B3,2013-01-12 03:55:00,
2013-01-11 20:00:00,16.1,13.4,30.33,WSW,257,0.0,2.0,89,0.00,,,0.01,WeatherCatV1.02B3,2013-01-12 04:00:00,
2013-01-11 20:05:00,15.9,13.2,30.33,WSW,257,1.0,2.0,89,0.00,,,0.01,WeatherCatV1.02B3,2013-01-12 04:05:00,
2013-01-11 20:10:00,15.4,11.7,30.33,WSW,257,0.0,2.0,85,0.00,,,0.01,WeatherCatV1.02B3,2013-01-12 04:10:00,
2013-01-11 20:15:00,15.2,12.3,30.33,WSW,257,0.0,0.0,88,0.00,,,0.01,WeatherCatV1.02B3,2013-01-12 04:15:00,
2013-01-11 20:20:00,15.3,12.9,30.33,WSW,257,0.0,0.0,90,0.00,,,0.01,WeatherCatV1.02B3,2013-01-12 04:20:00,
2013-01-11 20:25:00,15.4,13.0,30.33,WSW,257,0.0,0.0,90,0.00,,,0.01,WeatherCatV1.02B3,2013-01-12 04:25:00,
2013-01-11 20:30:00,15.4,13.0,30.34,WSW,257,0.0,0.0,90,0.00,,,0.01,WeatherCatV1.02B3,2013-01-12 04:30:00,
2013-01-11 20:40:00,15.8,13.6,30.34,WSW,257,0.0,0.0,91,0.00,,,0.01,WeatherCatV1.02B3,2013-01-12 04:40:00,
2013-01-11 20:50:00,15.8,13.6,30.33,WSW,257,0.0,0.0,91,0.00,,,0.01,WeatherCatV1.02B3,2013-01-12 04:50:00,
2013-01-11 20:55:00,15.8,13.6,30.33,WSW,257,1.0,1.0,91,0.00,,,0.01,WeatherCatV1.02B3,2013-01-12 04:55:00,
2013-01-11 21:05:00,15.4,12.8,30.33,WSW,257,1.0,1.0,89,0.00,,,0.01,WeatherCatV1.02B3,2013-01-12 05:05:00,
2013-01-11 21:10:00,14.8,11.6,30.34,WSW,257,1.0,1.0,87,0.00,,,0.01,WeatherCatV1.02B3,2013-01-12 05:10:00,
2013-01-11 21:15:00,14.2,11.1,30.34,WSW,257,0.0,1.0,87,0.00,,,0.01,WeatherCatV1.02B3,2013-01-12 05:15:00,
2013-01-11 21:20:00,13.9,11.0,30.33,WSW,257,0.0,1.0,88,0.00,,,0.01,WeatherCatV1.02B3,2013-01-12 05:20:00,
2013-01-11 21:25:00,13.9,11.5,30.33,WSW,257,0.0,0.0,90,0.00,,,0.01,WeatherCatV1.02B3,2013-01-12 05:25:00,
2013-01-11 21:30:00,14.1,12.0,30.33,WSW,257,0.0,0.0,91,0.00,,,0.01,WeatherCatV1.02B3,2013-01-12 05:30:00,
2013-01-11 21:35:00,14.3,12.2,30.33,WSW,257,1.0,1.0,91,0.00,,,0.01,WeatherCatV1.02B3,2013-01-12 05:35:00,
2013-01-11 21:40:00,14.2,11.8,30.34,WSW,257,0.0,0.0,90,0.00,,,0.01,WeatherCatV1.02B3,2013-01-12 05:40:00,
2013-01-11 21:45:00,14.1,11.7,30.34,WSW,257,0.0,0.0,90,0.00,,,0.01,WeatherCatV1.02B3,2013-01-12 05:45:00,
2013-01-11 21:50:00,14.1,11.7,30.34,WSW,257,0.0,0.0,90,0.00,,,0.01,WeatherCatV1.02B3,2013-01-12 05:50:00,
2013-01-11 21:55:00,14.2,12.1,30.34,WSW,257,0.0,0.0,91,0.00,,,0.01,WeatherCatV1.02B3,2013-01-12 05:55:00,
2013-01-11 22:00:00,14.4,12.3,30.34,WSW,257,0.0,0.0,91,0.00,,,0.01,WeatherCatV1.02B3,2013-01-12 06:00:00,
2013-01-11 22:05:00,14.5,12.6,30.34,WSW,257,0.0,0.0,92,0.00,,,0.01,WeatherCatV1.02B3,2013-01-12 06:05:00,
2013-01-11 22:15:00,14.6,12.2,30.34,WSW,257,0.0,1.0,90,0.00,,,0.01,WeatherCatV1.02B3,2013-01-12 06:15:00,
2013-01-11 22:20:00,14.5,12.1,30.34,WSW,257,0.0,0.0,90,0.00,,,0.01,WeatherCatV1.02B3,2013-01-12 06:20:00,
2013-01-11 22:25:00,14.3,11.9,30.34,WSW,257,0.0,0.0,90,0.00,,,0.01,WeatherCatV1.02B3,2013-01-12 06:25:00,
2013-01-11 22:30:00,14.1,11.7,30.34,WSW,257,0.0,0.0,90,0.00,,,0.01,WeatherCatV1.02B3,2013-01-12 06:30:00,
2013-01-11 22:35:00,13.9,11.5,30.34,WSW,257,0.0,0.0,90,0.00,,,0.01,WeatherCatV1.02B3,2013-01-12 06:35:00,
2013-01-11 22:40:00,13.8,11.7,30.34,WSW,257,0.0,0.0,91,0.00,,,0.01,WeatherCatV1.02B3,2013-01-12 06:40:00,
2013-01-11 22:50:00,13.6,11.2,30.34,WSW,257,1.0,1.0,90,0.00,,,0.01,WeatherCatV1.02B3,2013-01-12 06:50:00,
2013-01-11 22:55:00,13.2,10.8,30.34,WSW,257,1.0,1.0,90,0.00,,,0.01,WeatherCatV1.02B3,2013-01-12 06:55:00,
2013-01-11 23:00:00,12.9,10.5,30.34,WSW,257,0.0,1.0,90,0.00,,,0.01,WeatherCatV1.02B3,2013-01-12 07:00:00,
2013-01-11 23:05:00,12.6,10.2,30.34,WSW,257,1.0,1.0,90,0.00,,,0.01,WeatherCatV1.02B3,2013-01-12 07:05:00,
2013-01-11 23:10:00,12.5,10.4,30.34,WSW,257,0.0,0.0,91,0.00,,,0.01,WeatherCatV1.02B3,2013-01-12 07:10:00,
2013-01-11 23:15:00,12.6,10.5,30.34,WSW,257,1.0,3.0,91,0.00,,,0.01,WeatherCatV1.02B3,2013-01-12 07:15:00,
2013-01-11 23:20:00,12.2,9.8,30.35,WSW,257,0.0,0.0,90,0.00,,,0.01,WeatherCatV1.02B3,2013-01-12 07:20:00,
2013-01-11 23:25:00,11.9,9.5,30.35,WSW,257,0.0,0.0,90,0.00,,,0.01,WeatherCatV1.02B3,2013-01-12 07:25:00,
2013-01-11 23:30:00,11.9,9.8,30.35,WSW,257,1.0,1.0,91,0.00,,,0.01,WeatherCatV1.02B3,2013-01-12 07:30:00,
2013-01-11 23:35:00,11.8,9.7,30.35,WSW,257,0.0,0.0,91,0.00,,,0.01,WeatherCatV1.02B3,2013-01-12 07:35:00,
2013-01-11 23:40:00,11.9,10.0,30.35,WSW,257,0.0,0.0,92,0.00,,,0.01,WeatherCatV1.02B3,2013-01-12 07:40:00,
2013-01-11 23:50:00,11.7,9.6,30.35,WSW,257,0.0,2.0,91,0.00,,,0.01,WeatherCatV1.02B3,2013-01-12 07:50:00,
2013-01-11 23:55:00,11.7,9.6,30.35,WSW,257,0.0,1.0,91,0.00,,,0.01,WeatherCatV1.02B3,2013-01-12 07:55:00,